WZZ1 EPGD-LHBP
Flight info
| Callsign | WZZ1 |
|---|---|
| Flight time | 1h 11m |
| Altitude | 37000 |
| Route | IRLUN N133 PENEX DCT KELEL/N0437F320 DCT EDEMU |
| Aircraft | A321/M-SDE3FGHIRWY/LB1 |
Departure
| Time | 2026-05-05 18:26 |
|---|---|
| Airport | Gdańsk Lech Wałęsa Airport (EPGD) |
Arrival
| Time | 2026-05-05 19:37 |
|---|---|
| Airport | Budapest Liszt Ferenc International Airport (LHBP) |
| Time | Latitude | Longitude | Altitude | Speed | Heading |
|---|---|---|---|---|---|
| 2026-05-05 17:57 | 54.38188 | 18.46314 | 460 ft | 0 kts | 23° |
| 2026-05-05 18:14 | 54.38174 | 18.46304 | 460 ft | 4 kts | 25° |
| 2026-05-05 18:15 | 54.38156 | 18.46280 | 458 ft | 4 kts | 79° |
| 2026-05-05 18:15 | 54.38159 | 18.46239 | 457 ft | 3 kts | 111° |
| 2026-05-05 18:15 | 54.38161 | 18.46228 | 456 ft | 0 kts | 111° |
| 2026-05-05 18:19 | 54.38156 | 18.46250 | 456 ft | 5 kts | 111° |
| 2026-05-05 18:19 | 54.38132 | 18.46354 | 458 ft | 12 kts | 113° |
| 2026-05-05 18:19 | 54.38097 | 18.46493 | 460 ft | 14 kts | 113° |
| 2026-05-05 18:20 | 54.38040 | 18.46614 | 460 ft | 14 kts | 176° |
| 2026-05-05 18:20 | 54.37946 | 18.46604 | 460 ft | 14 kts | 140° |
| 2026-05-05 18:20 | 54.37902 | 18.46766 | 459 ft | 16 kts | 113° |
| 2026-05-05 18:20 | 54.37855 | 18.46948 | 460 ft | 17 kts | 113° |
| 2026-05-05 18:21 | 54.37806 | 18.47147 | 460 ft | 19 kts | 113° |
| 2026-05-05 18:21 | 54.37754 | 18.47360 | 460 ft | 20 kts | 113° |
| 2026-05-05 18:21 | 54.37701 | 18.47574 | 461 ft | 19 kts | 113° |
| 2026-05-05 18:21 | 54.37644 | 18.47803 | 466 ft | 24 kts | 113° |
| 2026-05-05 18:22 | 54.37579 | 18.48069 | 473 ft | 23 kts | 112° |
| 2026-05-05 18:22 | 54.37517 | 18.48314 | 472 ft | 21 kts | 113° |
| 2026-05-05 18:22 | 54.37464 | 18.48530 | 487 ft | 18 kts | 113° |
| 2026-05-05 18:22 | 54.37416 | 18.48721 | 483 ft | 17 kts | 113° |
| 2026-05-05 18:23 | 54.37371 | 18.48905 | 492 ft | 17 kts | 113° |
| 2026-05-05 18:23 | 54.37324 | 18.49094 | 490 ft | 18 kts | 113° |
| 2026-05-05 18:23 | 54.37283 | 18.49254 | 488 ft | 11 kts | 120° |
| 2026-05-05 18:23 | 54.37224 | 18.49273 | 496 ft | 0 kts | 197° |
| 2026-05-05 18:24 | 54.37208 | 18.49258 | 494 ft | 6 kts | 211° |
| 2026-05-05 18:24 | 54.37165 | 18.49193 | 488 ft | 10 kts | 225° |
| 2026-05-05 18:24 | 54.37148 | 18.49080 | 489 ft | 11 kts | 288° |
| 2026-05-05 18:25 | 54.37157 | 18.49044 | 493 ft | 0 kts | 293° |
| 2026-05-05 18:25 | 54.37161 | 18.49030 | 488 ft | 4 kts | 293° |
| 2026-05-05 18:25 | 54.37319 | 18.48390 | 481 ft | 96 kts | 293° |
| 2026-05-05 18:25 | 54.37677 | 18.46956 | 460 ft | 162 kts | 295° |
| 2026-05-05 18:26 | 54.38130 | 18.45131 | 1126 ft | 163 kts | 295° |
| 2026-05-05 18:26 | 54.38571 | 18.43332 | 1959 ft | 163 kts | 295° |
| 2026-05-05 18:26 | 54.39003 | 18.41547 | 2681 ft | 163 kts | 293° |
| 2026-05-05 18:26 | 54.39446 | 18.39727 | 3249 ft | 166 kts | 292° |
| 2026-05-05 18:27 | 54.39896 | 18.37901 | 3850 ft | 166 kts | 293° |
| 2026-05-05 18:27 | 54.40115 | 18.35908 | 4214 ft | 182 kts | 263° |
| 2026-05-05 18:27 | 54.39537 | 18.33892 | 4468 ft | 203 kts | 225° |
| 2026-05-05 18:27 | 54.38166 | 18.33028 | 4638 ft | 228 kts | 179° |
| 2026-05-05 18:28 | 54.34793 | 18.34556 | 5313 ft | 270 kts | 161° |
| 2026-05-05 18:28 | 54.33002 | 18.35653 | 6073 ft | 276 kts | 162° |
| 2026-05-05 18:28 | 54.31187 | 18.36758 | 6877 ft | 278 kts | 162° |
| 2026-05-05 18:29 | 54.29350 | 18.37842 | 7687 ft | 281 kts | 163° |
| 2026-05-05 18:29 | 54.27489 | 18.38902 | 8495 ft | 283 kts | 165° |
| 2026-05-05 18:29 | 54.25606 | 18.39946 | 9326 ft | 285 kts | 165° |
| 2026-05-05 18:29 | 54.23728 | 18.40970 | 10101 ft | 289 kts | 166° |
| 2026-05-05 18:30 | 54.21746 | 18.42036 | 10397 ft | 310 kts | 166° |
| 2026-05-05 18:30 | 54.19581 | 18.43191 | 10609 ft | 332 kts | 166° |
| 2026-05-05 18:30 | 54.17367 | 18.44377 | 11120 ft | 342 kts | 166° |
| 2026-05-05 18:30 | 54.15085 | 18.45605 | 11802 ft | 346 kts | 166° |
| 2026-05-05 18:31 | 54.12779 | 18.46848 | 12495 ft | 350 kts | 166° |
| 2026-05-05 18:31 | 54.10438 | 18.48111 | 13187 ft | 354 kts | 166° |
| 2026-05-05 18:31 | 54.08077 | 18.49381 | 13844 ft | 358 kts | 167° |
| 2026-05-05 18:31 | 54.05678 | 18.50666 | 14452 ft | 362 kts | 167° |
| 2026-05-05 18:32 | 54.03261 | 18.51958 | 15085 ft | 366 kts | 167° |
| 2026-05-05 18:32 | 54.00826 | 18.53260 | 15743 ft | 368 kts | 167° |
| 2026-05-05 18:32 | 53.98370 | 18.54571 | 16399 ft | 371 kts | 167° |
| 2026-05-05 18:32 | 53.95900 | 18.55889 | 17053 ft | 374 kts | 167° |
| 2026-05-05 18:33 | 53.93410 | 18.57215 | 17705 ft | 377 kts | 167° |
| 2026-05-05 18:33 | 53.90898 | 18.58551 | 18322 ft | 380 kts | 167° |
| 2026-05-05 18:33 | 53.88368 | 18.59889 | 18875 ft | 383 kts | 167° |
| 2026-05-05 18:33 | 53.85813 | 18.61236 | 19434 ft | 385 kts | 168° |
| 2026-05-05 18:34 | 53.83245 | 18.62592 | 19976 ft | 388 kts | 168° |
| 2026-05-05 18:34 | 53.80662 | 18.63959 | 20581 ft | 390 kts | 168° |
| 2026-05-05 18:34 | 53.78063 | 18.65335 | 21145 ft | 393 kts | 168° |
| 2026-05-05 18:34 | 53.75444 | 18.66720 | 21687 ft | 396 kts | 168° |
| 2026-05-05 18:35 | 53.72799 | 18.68113 | 22204 ft | 399 kts | 168° |
| 2026-05-05 18:35 | 53.70137 | 18.69514 | 22713 ft | 403 kts | 168° |
| 2026-05-05 18:35 | 53.67487 | 18.70906 | 23203 ft | 406 kts | 168° |
| 2026-05-05 18:35 | 53.64740 | 18.72344 | 23655 ft | 409 kts | 168° |
| 2026-05-05 18:36 | 53.62050 | 18.73751 | 24060 ft | 412 kts | 168° |
| 2026-05-05 18:36 | 53.59302 | 18.75190 | 24463 ft | 415 kts | 168° |
| 2026-05-05 18:36 | 53.56543 | 18.76635 | 24869 ft | 417 kts | 168° |
| 2026-05-05 18:36 | 53.53759 | 18.78093 | 25279 ft | 420 kts | 168° |
| 2026-05-05 18:37 | 53.50964 | 18.79553 | 25651 ft | 423 kts | 168° |
| 2026-05-05 18:37 | 53.48143 | 18.81021 | 26038 ft | 426 kts | 168° |
| 2026-05-05 18:37 | 53.45298 | 18.82498 | 26412 ft | 428 kts | 168° |
| 2026-05-05 18:37 | 53.42446 | 18.83975 | 26799 ft | 431 kts | 168° |
| 2026-05-05 18:38 | 53.39571 | 18.85461 | 27172 ft | 434 kts | 168° |
| 2026-05-05 18:38 | 53.36678 | 18.86959 | 27534 ft | 437 kts | 168° |
| 2026-05-05 18:38 | 53.33766 | 18.88466 | 27882 ft | 440 kts | 168° |
| 2026-05-05 18:38 | 53.30835 | 18.89982 | 28256 ft | 442 kts | 168° |
| 2026-05-05 18:39 | 53.27881 | 18.91509 | 28614 ft | 445 kts | 168° |
| 2026-05-05 18:39 | 53.24913 | 18.93038 | 28963 ft | 447 kts | 168° |
| 2026-05-05 18:39 | 53.21929 | 18.94569 | 29266 ft | 450 kts | 168° |
| 2026-05-05 18:39 | 53.18923 | 18.96108 | 29581 ft | 453 kts | 168° |
| 2026-05-05 18:40 | 53.15898 | 18.97653 | 29913 ft | 456 kts | 168° |
| 2026-05-05 18:40 | 53.12852 | 18.99207 | 30210 ft | 459 kts | 168° |
| 2026-05-05 18:40 | 53.09795 | 19.00768 | 30501 ft | 461 kts | 168° |
| 2026-05-05 18:40 | 53.06723 | 19.02336 | 30883 ft | 461 kts | 168° |
| 2026-05-05 18:41 | 53.03699 | 19.03877 | 31300 ft | 460 kts | 168° |
| 2026-05-05 18:41 | 53.00641 | 19.05430 | 31716 ft | 459 kts | 168° |
| 2026-05-05 18:41 | 52.97587 | 19.06978 | 32139 ft | 458 kts | 168° |
| 2026-05-05 18:41 | 52.94538 | 19.08524 | 32508 ft | 458 kts | 168° |
| 2026-05-05 18:42 | 52.91490 | 19.10070 | 32898 ft | 458 kts | 168° |
| 2026-05-05 18:42 | 52.88445 | 19.11613 | 33286 ft | 457 kts | 168° |
| 2026-05-05 18:42 | 52.85400 | 19.13154 | 33684 ft | 457 kts | 168° |
| 2026-05-05 18:42 | 52.82356 | 19.14688 | 34039 ft | 457 kts | 168° |
| 2026-05-05 18:43 | 52.79319 | 19.16217 | 34380 ft | 456 kts | 168° |
| 2026-05-05 18:43 | 52.76281 | 19.17745 | 34701 ft | 455 kts | 168° |
| 2026-05-05 18:43 | 52.73254 | 19.19261 | 35045 ft | 454 kts | 168° |
| 2026-05-05 18:43 | 52.70224 | 19.20775 | 35403 ft | 454 kts | 168° |
| 2026-05-05 18:44 | 52.67211 | 19.22279 | 35701 ft | 453 kts | 167° |
| 2026-05-05 18:44 | 52.64195 | 19.23787 | 36035 ft | 452 kts | 167° |
| 2026-05-05 18:44 | 52.61224 | 19.25272 | 36353 ft | 451 kts | 167° |
| 2026-05-05 18:44 | 52.58225 | 19.26764 | 36662 ft | 451 kts | 167° |
| 2026-05-05 18:45 | 52.55200 | 19.28062 | 36805 ft | 447 kts | 174° |
| 2026-05-05 18:45 | 52.52144 | 19.28971 | 36832 ft | 446 kts | 174° |
| 2026-05-05 18:45 | 52.46050 | 19.30773 | 36813 ft | 444 kts | 174° |
| 2026-05-05 18:46 | 52.39969 | 19.32564 | 36788 ft | 444 kts | 174° |
| 2026-05-05 18:46 | 52.33888 | 19.34347 | 36809 ft | 443 kts | 173° |
| 2026-05-05 18:47 | 52.27818 | 19.36128 | 36810 ft | 443 kts | 173° |
| 2026-05-05 18:47 | 52.21742 | 19.37900 | 36808 ft | 444 kts | 173° |
| 2026-05-05 18:48 | 52.15662 | 19.39674 | 36819 ft | 444 kts | 173° |
| 2026-05-05 18:48 | 52.09576 | 19.41451 | 36800 ft | 444 kts | 173° |
| 2026-05-05 18:49 | 52.03496 | 19.43208 | 36808 ft | 444 kts | 173° |
| 2026-05-05 18:49 | 51.97418 | 19.44959 | 36807 ft | 444 kts | 173° |
| 2026-05-05 18:50 | 51.91338 | 19.46716 | 36805 ft | 444 kts | 173° |
| 2026-05-05 18:50 | 51.85252 | 19.48462 | 36805 ft | 444 kts | 173° |
| 2026-05-05 18:51 | 51.79170 | 19.50215 | 36804 ft | 444 kts | 173° |
| 2026-05-05 18:51 | 51.73134 | 19.51951 | 36803 ft | 444 kts | 173° |
| 2026-05-05 18:52 | 51.67053 | 19.53690 | 36802 ft | 444 kts | 173° |
| 2026-05-05 18:52 | 51.60974 | 19.55417 | 36805 ft | 444 kts | 173° |
| 2026-05-05 18:53 | 51.54894 | 19.57149 | 36803 ft | 443 kts | 173° |
| 2026-05-05 18:53 | 51.48817 | 19.58867 | 36793 ft | 443 kts | 173° |
| 2026-05-05 18:54 | 51.42736 | 19.60586 | 36803 ft | 444 kts | 173° |
| 2026-05-05 18:54 | 51.36652 | 19.62284 | 36808 ft | 444 kts | 173° |
| 2026-05-05 18:55 | 51.30567 | 19.63987 | 36806 ft | 444 kts | 173° |
| 2026-05-05 18:55 | 51.24487 | 19.65702 | 36816 ft | 444 kts | 173° |
| 2026-05-05 18:56 | 51.18445 | 19.67399 | 36825 ft | 444 kts | 173° |
| 2026-05-05 18:56 | 51.12362 | 19.69092 | 36826 ft | 444 kts | 173° |
| 2026-05-05 18:57 | 51.06268 | 19.70776 | 36828 ft | 444 kts | 173° |
| 2026-05-05 18:57 | 51.00189 | 19.72463 | 36833 ft | 443 kts | 173° |
| 2026-05-05 18:58 | 50.94113 | 19.74145 | 36839 ft | 443 kts | 173° |
| 2026-05-05 18:58 | 50.88036 | 19.75819 | 36849 ft | 443 kts | 173° |
| 2026-05-05 18:59 | 50.81968 | 19.77482 | 36838 ft | 442 kts | 173° |
| 2026-05-05 18:59 | 50.75911 | 19.79139 | 36849 ft | 442 kts | 173° |
| 2026-05-05 19:00 | 50.69850 | 19.80792 | 36853 ft | 442 kts | 173° |
| 2026-05-05 19:00 | 50.63791 | 19.82439 | 36858 ft | 442 kts | 173° |
| 2026-05-05 19:01 | 50.57738 | 19.84090 | 36857 ft | 441 kts | 173° |
| 2026-05-05 19:01 | 50.51682 | 19.85741 | 36856 ft | 442 kts | 173° |
| 2026-05-05 19:02 | 50.45660 | 19.87368 | 36852 ft | 442 kts | 173° |
| 2026-05-05 19:02 | 50.39600 | 19.89010 | 36859 ft | 442 kts | 172° |
| 2026-05-05 19:03 | 50.33539 | 19.90646 | 36859 ft | 442 kts | 173° |
| 2026-05-05 19:03 | 50.27477 | 19.92270 | 36852 ft | 442 kts | 172° |
| 2026-05-05 19:04 | 50.21409 | 19.93886 | 36862 ft | 442 kts | 172° |
| 2026-05-05 19:04 | 50.15347 | 19.95503 | 36861 ft | 442 kts | 172° |
| 2026-05-05 19:05 | 50.10311 | 19.96843 | 36857 ft | 442 kts | 172° |
| 2026-05-05 19:05 | 50.04246 | 19.98455 | 36858 ft | 442 kts | 172° |
| 2026-05-05 19:06 | 49.98190 | 20.00061 | 36856 ft | 442 kts | 172° |
| 2026-05-05 19:06 | 49.92130 | 20.01669 | 36880 ft | 442 kts | 172° |
| 2026-05-05 19:07 | 49.86069 | 20.03272 | 36884 ft | 442 kts | 172° |
| 2026-05-05 19:07 | 49.80008 | 20.04868 | 36885 ft | 442 kts | 172° |
| 2026-05-05 19:08 | 49.73936 | 20.06460 | 36889 ft | 442 kts | 172° |
| 2026-05-05 19:08 | 49.67871 | 20.08043 | 36897 ft | 442 kts | 172° |
| 2026-05-05 19:09 | 49.61803 | 20.09630 | 36901 ft | 442 kts | 172° |
| 2026-05-05 19:09 | 49.55740 | 20.11212 | 36892 ft | 442 kts | 172° |
| 2026-05-05 19:10 | 49.49711 | 20.12776 | 36906 ft | 442 kts | 173° |
| 2026-05-05 19:10 | 49.43646 | 20.14344 | 36911 ft | 442 kts | 173° |
| 2026-05-05 19:11 | 49.37580 | 20.15920 | 36909 ft | 442 kts | 173° |
| 2026-05-05 19:11 | 49.31491 | 20.17013 | 36916 ft | 439 kts | 184° |
| 2026-05-05 19:12 | 49.25508 | 20.15610 | 36923 ft | 435 kts | 194° |
| 2026-05-05 19:12 | 49.19592 | 20.13639 | 36941 ft | 435 kts | 194° |
| 2026-05-05 19:13 | 49.13667 | 20.11706 | 36943 ft | 435 kts | 194° |
| 2026-05-05 19:13 | 49.07741 | 20.09782 | 36932 ft | 435 kts | 194° |
| 2026-05-05 19:14 | 49.01813 | 20.07851 | 36935 ft | 436 kts | 194° |
| 2026-05-05 19:14 | 48.95881 | 20.05914 | 36937 ft | 436 kts | 194° |
| 2026-05-05 19:15 | 48.89951 | 20.03991 | 36942 ft | 436 kts | 194° |
| 2026-05-05 19:15 | 48.86984 | 20.03028 | 36759 ft | 436 kts | 194° |
| 2026-05-05 19:15 | 48.84012 | 20.02064 | 36171 ft | 437 kts | 194° |
| 2026-05-05 19:16 | 48.81036 | 20.01102 | 35618 ft | 437 kts | 194° |
| 2026-05-05 19:16 | 48.78088 | 20.00151 | 34857 ft | 441 kts | 194° |
| 2026-05-05 19:16 | 48.75069 | 19.99179 | 34095 ft | 446 kts | 194° |
| 2026-05-05 19:16 | 48.72025 | 19.98198 | 33230 ft | 450 kts | 194° |
| 2026-05-05 19:17 | 48.68957 | 19.97210 | 32439 ft | 450 kts | 194° |
| 2026-05-05 19:17 | 48.65915 | 19.96232 | 32005 ft | 444 kts | 194° |
| 2026-05-05 19:17 | 48.62903 | 19.95265 | 31477 ft | 441 kts | 194° |
| 2026-05-05 19:17 | 48.59912 | 19.94305 | 30958 ft | 437 kts | 194° |
| 2026-05-05 19:18 | 48.56951 | 19.93353 | 30424 ft | 433 kts | 194° |
| 2026-05-05 19:18 | 48.54014 | 19.92412 | 29905 ft | 430 kts | 194° |
| 2026-05-05 19:18 | 48.51098 | 19.91482 | 29348 ft | 425 kts | 194° |
| 2026-05-05 19:18 | 48.48222 | 19.90566 | 28838 ft | 420 kts | 194° |
| 2026-05-05 19:19 | 48.45381 | 19.89662 | 28339 ft | 415 kts | 194° |
| 2026-05-05 19:19 | 48.42572 | 19.88770 | 27836 ft | 410 kts | 194° |
| 2026-05-05 19:19 | 48.39793 | 19.87889 | 27347 ft | 406 kts | 194° |
| 2026-05-05 19:19 | 48.37045 | 19.87014 | 26867 ft | 402 kts | 194° |
| 2026-05-05 19:20 | 48.34321 | 19.86144 | 26396 ft | 398 kts | 194° |
| 2026-05-05 19:20 | 48.31627 | 19.85283 | 25937 ft | 395 kts | 194° |
| 2026-05-05 19:20 | 48.28981 | 19.84443 | 25494 ft | 392 kts | 194° |
| 2026-05-05 19:20 | 48.26318 | 19.83601 | 25054 ft | 390 kts | 194° |
| 2026-05-05 19:21 | 48.23673 | 19.82767 | 24617 ft | 387 kts | 194° |
| 2026-05-05 19:21 | 48.21008 | 19.81928 | 24190 ft | 385 kts | 194° |
| 2026-05-05 19:21 | 48.18428 | 19.81116 | 23778 ft | 383 kts | 194° |
| 2026-05-05 19:21 | 48.15815 | 19.80334 | 23301 ft | 381 kts | 192° |
| 2026-05-05 19:22 | 48.13211 | 19.79670 | 22862 ft | 378 kts | 191° |
| 2026-05-05 19:22 | 48.10624 | 19.79084 | 22430 ft | 374 kts | 190° |
| 2026-05-05 19:22 | 48.08058 | 19.78534 | 21999 ft | 370 kts | 190° |
| 2026-05-05 19:22 | 48.05519 | 19.77987 | 21566 ft | 367 kts | 190° |
| 2026-05-05 19:23 | 48.03011 | 19.77433 | 21122 ft | 363 kts | 190° |
| 2026-05-05 19:23 | 48.00525 | 19.76867 | 20683 ft | 359 kts | 190° |
| 2026-05-05 19:23 | 47.98065 | 19.76294 | 20233 ft | 356 kts | 190° |
| 2026-05-05 19:23 | 47.95625 | 19.75720 | 19792 ft | 353 kts | 190° |
| 2026-05-05 19:24 | 47.93209 | 19.75153 | 19339 ft | 351 kts | 190° |
| 2026-05-05 19:24 | 47.90806 | 19.74588 | 18887 ft | 349 kts | 190° |
| 2026-05-05 19:24 | 47.88415 | 19.74030 | 18436 ft | 346 kts | 189° |
| 2026-05-05 19:24 | 47.86044 | 19.73455 | 17949 ft | 344 kts | 193° |
| 2026-05-05 19:25 | 47.83777 | 19.72379 | 17486 ft | 340 kts | 204° |
| 2026-05-05 19:25 | 47.81755 | 19.70565 | 16721 ft | 344 kts | 220° |
| 2026-05-05 19:25 | 47.80194 | 19.67800 | 15696 ft | 357 kts | 237° |
| 2026-05-05 19:25 | 47.78903 | 19.64563 | 14582 ft | 371 kts | 238° |
| 2026-05-05 19:26 | 47.77587 | 19.61185 | 13444 ft | 383 kts | 238° |
| 2026-05-05 19:26 | 47.76253 | 19.57738 | 12588 ft | 385 kts | 238° |
| 2026-05-05 19:26 | 47.76153 | 19.57480 | 12540 ft | 385 kts | 238° |
| 2026-05-05 19:26 | 47.75172 | 19.54937 | 12040 ft | 382 kts | 238° |
| 2026-05-05 19:27 | 47.73854 | 19.51530 | 11378 ft | 378 kts | 238° |
| 2026-05-05 19:27 | 47.72558 | 19.48196 | 10560 ft | 366 kts | 237° |
| 2026-05-05 19:27 | 47.71308 | 19.44998 | 9823 ft | 351 kts | 237° |
| 2026-05-05 19:27 | 47.70113 | 19.41949 | 9187 ft | 333 kts | 237° |
| 2026-05-05 19:28 | 47.69057 | 19.38981 | 8574 ft | 320 kts | 247° |
| 2026-05-05 19:28 | 47.68548 | 19.35857 | 8028 ft | 309 kts | 256° |
| 2026-05-05 19:28 | 47.68160 | 19.32778 | 7547 ft | 297 kts | 256° |
| 2026-05-05 19:28 | 47.67798 | 19.29822 | 7105 ft | 286 kts | 256° |
| 2026-05-05 19:29 | 47.67446 | 19.26965 | 6669 ft | 277 kts | 256° |
| 2026-05-05 19:29 | 47.67103 | 19.24193 | 6340 ft | 270 kts | 256° |
| 2026-05-05 19:29 | 47.66770 | 19.21481 | 6057 ft | 266 kts | 255° |
| 2026-05-05 19:29 | 47.66472 | 19.18792 | 5792 ft | 262 kts | 256° |
| 2026-05-05 19:30 | 47.66188 | 19.16142 | 5487 ft | 258 kts | 256° |
| 2026-05-05 19:30 | 47.65902 | 19.13528 | 5172 ft | 256 kts | 256° |
| 2026-05-05 19:30 | 47.65613 | 19.10924 | 4828 ft | 255 kts | 256° |
| 2026-05-05 19:30 | 47.65306 | 19.08344 | 4476 ft | 252 kts | 252° |
| 2026-05-05 19:31 | 47.64528 | 19.06101 | 4175 ft | 241 kts | 224° |
| 2026-05-05 19:31 | 47.63260 | 19.04536 | 3923 ft | 235 kts | 210° |
| 2026-05-05 19:31 | 47.61715 | 19.03900 | 3673 ft | 232 kts | 185° |
| 2026-05-05 19:31 | 47.60129 | 19.03913 | 3531 ft | 223 kts | 181° |
| 2026-05-05 19:32 | 47.58645 | 19.04011 | 3511 ft | 204 kts | 180° |
| 2026-05-05 19:32 | 47.57276 | 19.04105 | 3518 ft | 187 kts | 180° |
| 2026-05-05 19:32 | 47.56043 | 19.04536 | 3497 ft | 183 kts | 162° |
| 2026-05-05 19:32 | 47.54997 | 19.05615 | 3349 ft | 187 kts | 141° |
| 2026-05-05 19:33 | 47.54185 | 19.07143 | 3146 ft | 188 kts | 135° |
| 2026-05-05 19:33 | 47.53327 | 19.08582 | 2925 ft | 185 kts | 142° |
| 2026-05-05 19:33 | 47.52415 | 19.09918 | 2705 ft | 184 kts | 143° |
| 2026-05-05 19:33 | 47.51534 | 19.11291 | 2421 ft | 183 kts | 140° |
| 2026-05-05 19:34 | 47.50716 | 19.12694 | 2140 ft | 176 kts | 138° |
| 2026-05-05 19:34 | 47.49908 | 19.13948 | 1980 ft | 161 kts | 140° |
| 2026-05-05 19:34 | 47.49166 | 19.15152 | 1701 ft | 155 kts | 140° |
| 2026-05-05 19:35 | 47.47730 | 19.17461 | 1311 ft | 151 kts | 138° |
| 2026-05-05 19:35 | 47.47022 | 19.18590 | 1116 ft | 149 kts | 135° |
| 2026-05-05 19:35 | 47.46341 | 19.19715 | 921 ft | 149 kts | 135° |
| 2026-05-05 19:35 | 47.45641 | 19.20851 | 730 ft | 150 kts | 135° |
| 2026-05-05 19:36 | 47.44942 | 19.21974 | 533 ft | 147 kts | 134° |
| 2026-05-05 19:36 | 47.44268 | 19.23055 | 452 ft | 126 kts | 132° |
| 2026-05-05 19:36 | 47.43798 | 19.23814 | 455 ft | 77 kts | 133° |
| 2026-05-05 19:36 | 47.43481 | 19.24327 | 451 ft | 63 kts | 132° |
| 2026-05-05 19:37 | 47.43209 | 19.24765 | 456 ft | 45 kts | 131° |
| 2026-05-05 19:37 | 47.43097 | 19.24968 | 457 ft | 19 kts | 105° |
| 2026-05-05 19:37 | 47.43159 | 19.25136 | 457 ft | 20 kts | 42° |
| 2026-05-05 19:37 | 47.43264 | 19.25277 | 457 ft | 21 kts | 42° |
| 2026-05-05 19:38 | 47.43377 | 19.25429 | 457 ft | 23 kts | 43° |
| 2026-05-05 19:38 | 47.43485 | 19.25576 | 457 ft | 20 kts | 43° |
| 2026-05-05 19:38 | 47.43585 | 19.25710 | 457 ft | 18 kts | 41° |
| 2026-05-05 19:38 | 47.43675 | 19.25830 | 455 ft | 17 kts | 42° |
| 2026-05-05 19:39 | 47.43745 | 19.25933 | 457 ft | 11 kts | 70° |
| 2026-05-05 19:39 | 47.43702 | 19.26028 | 457 ft | 12 kts | 132° |
| 2026-05-05 19:39 | 47.43676 | 19.26154 | 457 ft | 14 kts | 88° |
| 2026-05-05 19:39 | 47.43676 | 19.26307 | 458 ft | 16 kts | 103° |
| 2026-05-05 19:40 | 47.43612 | 19.26438 | 458 ft | 14 kts | 132° |
| 2026-05-05 19:40 | 47.43542 | 19.26551 | 458 ft | 15 kts | 133° |
| 2026-05-05 19:40 | 47.43489 | 19.26635 | 457 ft | 8 kts | 133° |
| 2026-05-05 19:40 | 47.43459 | 19.26659 | 458 ft | 4 kts | 197° |
| 2026-05-05 19:41 | 47.43432 | 19.26628 | 456 ft | 4 kts | 222° |
| 2026-05-05 19:41 | 47.43425 | 19.26618 | 456 ft | 0 kts | 222° |